Terminal Aerodrome Forecast
Issued by NWS Pueblo, CO

Home | Current Version | Previous Version | Text Only | Print | Product List | Glossary On
Versions: 1 2 3 4 5 6 7 8 9 10 11 12 13 14 15 16 17 18 19 20 21 22 23 24 25 26 27 28 29 30 31 32
000
FTUS45 KPUB 051120
TAFALS
TAF
KALS 051120Z 0512/0612 23008KT P6SM -SHRA SCT020 OVC035
      TEMPO 0512/0515 BKN020
     FM051700 16008KT P6SM VCSH SCT020 OVC040
     FM052000 22012G22KT P6SM VCTS SCT040CB BKN090
     FM060300 20008KT P6SM VCSH SCT060 BKN120=

USA.gov is the U.S. government's official web portal to all federal, state and local government web resources and services.